Latest Weather Observations for Warburto Point

IDS60801

Issued at 3:01 pm CDT Monday 27 March 2017 (issued every 30 minutes, with the page automatically refreshed every 10 minutes)

About weather observations | Map of weather stations | Latest weather observations for SA | Other Formats
Station Details ID: 022053 Name: WARBURTO POINT Lat: -34.00 Lon: 137.53 Height: 1.0 m
Data from the previous 72 hours. | See also: Recent months for locations in South Australia
Date/Time
CDT
Temp
°C
App
Temp
°C
Dew
Point
°C
Rel
Hum
%
Delta-T
°C
Wind Press
QNH
hPa
Press
MSL
hPa
Rain since
9am
mm
Dir  Spd
km/h
Gust
km/h
Spd
kts
Gust
kts
27/03:00pm - - - - - SSW 22 30 12 16 - - -
27/02:30pm - - - - - SW 26 32 14 17 - - -
27/02:00pm - - - - - SW 28 35 15 19 - - -
27/01:30pm - - - - - SW 30 37 16 20 - - -
27/01:00pm - - - - - SW 32 39 17 21 - - -
27/12:30pm - - - - - SW 30 35 16 19 - - -
27/12:00pm - - - - - SW 30 37 16 20 - - -
27/11:30am - - - - - SW 30 39 16 21 - - -
27/11:00am - - - - - WSW 32 43 17 23 - - -
27/10:30am - - - - - WSW 32 41 17 22 - - -
27/10:00am - - - - - SW 32 44 17 24 - - -
27/09:30am - - - - - WSW 35 44 19 24 - - -
27/09:00am - - - - - WSW 26 35 14 19 - - -
27/08:30am - - - - - SW 30 37 16 20 - - -
27/08:00am - - - - - WSW 24 33 13 18 - - -
27/07:30am - - - - - WSW 26 33 14 18 - - -
27/07:00am - - - - - SW 28 33 15 18 - - -
27/06:30am - - - - - SW 35 46 19 25 - - -
27/06:00am - - - - - WSW 37 50 20 27 - - -
27/05:30am - - - - - SW 39 54 21 29 - - -
27/05:00am - - - - - SW 39 50 21 27 - - -
27/04:30am - - - - - SW 44 52 24 28 - - -
27/04:00am - - - - - SW 37 52 20 28 - - -
27/03:30am - - - - - WSW 35 48 19 26 - - -
27/03:00am - - - - - SW 43 56 23 30 - - -
27/02:30am - - - - - SW 33 44 18 24 - - -
27/02:00am - - - - - WSW 39 54 21 29 - - -
27/01:41am - - - - - WNW 33 46 18 25 - - -
27/01:30am - - - - - NW 33 54 18 29 - - -
27/01:25am - - - - - NNW 33 54 18 29 - - -
27/01:22am - - - - - N 33 54 18 29 - - -
27/01:00am - - - - - NNE 32 39 17 21 - - -
27/12:30am - - - - - NNE 33 39 18 21 - - -
27/12:00am - - - - - NNE 30 41 16 22 - - -
 
Date/Time
CDT
Temp
°C
App
Temp
°C
Dew
Point
°C
Rel
Hum
%
Delta-T
°C
Wind Press
QNH
hPa
Press
MSL
hPa
Rain since
9am
mm
Dir  Spd
km/h
Gust
km/h
Spd
kts
Gust
kts
26/11:30pm - - - - - NE 24 30 13 16 - - -
26/11:00pm - - - - - ENE 22 26 12 14 - - -
26/10:30pm - - - - - ENE 20 24 11 13 - - -
26/10:00pm - - - - - ENE 19 24 10 13 - - -
26/09:30pm - - - - - E 17 19 9 10 - - -
26/09:00pm - - - - - E 15 17 8 9 - - -
26/08:30pm - - - - - E 17 19 9 10 - - -
26/08:00pm - - - - - E 19 22 10 12 - - -
26/07:30pm - - - - - E 19 26 10 14 - - -
26/07:00pm - - - - - NE 11 13 6 7 - - -
26/06:30pm - - - - - NNE 13 17 7 9 - - -
26/05:30pm - - - - - NNE 13 15 7 8 - - -
26/05:00pm - - - - - NNE 13 15 7 8 - - -
26/04:30pm - - - - - NNE 11 13 6 7 - - -
26/04:00pm - - - - - NNE 11 15 6 8 - - -
26/03:30pm - - - - - NE 9 13 5 7 - - -
26/03:00pm - - - - - N 7 11 4 6 - - -
26/02:30pm - - - - - N 9 13 5 7 - - -
26/02:00pm - - - - - NNW 6 11 3 6 - - -
26/01:30pm - - - - - SSW 7 11 4 6 - - -
26/01:00pm - - - - - WSW 11 17 6 9 - - -
26/12:30pm - - - - - NW 11 15 6 8 - - -
26/12:00pm - - - - - N 15 17 8 9 - - -
26/11:30am - - - - - N 13 17 7 9 - - -
26/11:00am - - - - - N 13 17 7 9 - - -
26/10:30am - - - - - NNE 13 15 7 8 - - -
26/10:00am - - - - - NNE 9 13 5 7 - - -
26/09:30am - - - - - NE 9 13 5 7 - - -
26/09:00am - - - - - NE 11 13 6 7 - - -
26/08:30am - - - - - ENE 9 13 5 7 - - -
26/08:00am - - - - - NE 15 17 8 9 - - -
26/07:30am - - - - - NE 17 20 9 11 - - -
26/07:00am - - - - - NE 11 17 6 9 - - -
26/06:30am - - - - - E 20 28 11 15 - - -
26/06:00am - - - - - NE 17 26 9 14 - - -
26/05:30am - - - - - E 11 13 6 7 - - -
26/05:00am - - - - - ESE 7 11 4 6 - - -
26/04:30am - - - - - SE 13 17 7 9 - - -
26/04:00am - - - - - SE 9 11 5 6 - - -
26/03:30am - - - - - SSE 11 13 6 7 - - -
26/03:00am - - - - - SSE 13 17 7 9 - - -
26/02:30am - - - - - SSE 13 17 7 9 - - -
26/02:00am - - - - - SE 13 15 7 8 - - -
26/01:30am - - - - - SSE 11 13 6 7 - - -
26/01:00am - - - - - ESE 9 11 5 6 - - -
26/12:30am - - - - - SE 7 9 4 5 - - -
26/12:00am - - - - - ESE 6 7 3 4 - - -
 
Date/Time
CDT
Temp
°C
App
Temp
°C
Dew
Point
°C
Rel
Hum
%
Delta-T
°C
Wind Press
QNH
hPa
Press
MSL
hPa
Rain since
9am
mm
Dir  Spd
km/h
Gust
km/h
Spd
kts
Gust
kts
25/11:30pm - - - - - SSE 7 9 4 5 - - -
25/11:00pm - - - - - CALM 0 0 0 0 - - -
25/10:30pm - - - - - SSE 7 9 4 5 - - -
25/10:00pm - - - - - SE 9 13 5 7 - - -
25/09:30pm - - - - - SE 13 15 7 8 - - -
25/09:00pm - - - - - SE 13 15 7 8 - - -
25/08:30pm - - - - - SE 11 13 6 7 - - -
25/08:00pm - - - - - ESE 11 13 6 7 - - -
25/07:30pm - - - - - SSE 13 17 7 9 - - -
25/07:00pm - - - - - SSW 15 19 8 10 - - -
25/06:30pm - - - - - SSW 9 11 5 6 - - -
25/06:00pm - - - - - SSW 15 17 8 9 - - -
25/05:30pm - - - - - SW 19 24 10 13 - - -
25/05:00pm - - - - - SW 20 26 11 14 - - -
25/04:30pm - - - - - SW 20 28 11 15 - - -
25/04:00pm - - - - - SSW 17 22 9 12 - - -
25/03:30pm - - - - - SSW 20 24 11 13 - - -
25/03:00pm - - - - - SSW 26 32 14 17 - - -
25/02:30pm - - - - - SW 24 30 13 16 - - -
25/02:00pm - - - - - SW 22 28 12 15 - - -
25/01:30pm - - - - - SW 26 33 14 18 - - -
25/01:00pm - - - - - SW 19 24 10 13 - - -
25/12:30pm - - - - - SSW 20 26 11 14 - - -
25/12:00pm - - - - - SSW 22 28 12 15 - - -
25/11:30am - - - - - SW 19 26 10 14 - - -
25/11:00am - - - - - SSW 17 19 9 10 - - -
25/10:30am - - - - - S 22 26 12 14 - - -
25/10:00am - - - - - S 20 26 11 14 - - -
25/09:30am - - - - - S 22 28 12 15 - - -
25/09:00am - - - - - S 20 26 11 14 - - -
25/08:30am - - - - - S 17 22 9 12 - - -
25/08:00am - - - - - S 15 17 8 9 - - -
25/07:30am - - - - - S 15 17 8 9 - - -
25/07:00am - - - - - S 9 13 5 7 - - -
25/06:30am - - - - - SE 9 11 5 6 - - -
25/06:00am - - - - - SSE 6 9 3 5 - - -
25/05:30am - - - - - E 7 9 4 5 - - -
25/05:00am - - - - - CALM 0 9 0 5 - - -
25/04:30am - - - - - CALM 0 0 0 0 - - -
25/04:00am - - - - - CALM 0 0 0 0 - - -
25/03:30am - - - - - CALM 0 0 0 0 - - -
25/03:00am - - - - - SW 4 7 2 4 - - -
25/02:30am - - - - - SW 13 15 7 8 - - -
25/02:00am - - - - - SW 13 17 7 9 - - -
25/01:30am - - - - - WSW 17 19 9 10 - - -
25/01:00am - - - - - W 13 17 7 9 - - -
25/12:30am - - - - - SW 9 11 5 6 - - -
25/12:00am - - - - - SE 6 7 3 4 - - -
 
Date/Time
CDT
Temp
°C
App
Temp
°C
Dew
Point
°C
Rel
Hum
%
Delta-T
°C
Wind Press
QNH
hPa
Press
MSL
hPa
Rain since
9am
mm
Dir  Spd
km/h
Gust
km/h
Spd
kts
Gust
kts
24/11:30pm - - - - - SSE 7 9 4 5 - - -
24/11:00pm - - - - - S 11 13 6 7 - - -
24/10:30pm - - - - - S 11 13 6 7 - - -
24/10:00pm - - - - - S 17 24 9 13 - - -
24/09:30pm - - - - - S 17 26 9 14 - - -
24/09:00pm - - - - - S 17 24 9 13 - - -
24/08:30pm - - - - - S 19 26 10 14 - - -
24/08:00pm - - - - - S 22 28 12 15 - - -
24/07:30pm - - - - - S 22 28 12 15 - - -
24/07:00pm - - - - - SSW 28 33 15 18 - - -
24/06:30pm - - - - - SSW 20 32 11 17 - - -
24/06:00pm - - - - - SSW 13 17 7 9 - - -
24/05:30pm - - - - - SSW 17 20 9 11 - - -
24/05:00pm - - - - - SSW 15 17 8 9 - - -
24/04:30pm - - - - - SSW 11 15 6 8 - - -
24/04:00pm - - - - - WSW 9 17 5 9 - - -
24/03:30pm - - - - - SW 7 9 4 5 - - -

Other Formats:

Comma delimited format used in spreadsheet applications
http://www.bom.gov.au/fwo/IDS60801/IDS60801.94666.axf

JavaScript Object Notation format (JSON) in row-major order
http://www.bom.gov.au/fwo/IDS60801/IDS60801.94666.json